Time;durP1;ratioP1;P1;durP2;ratioP2;P2;SDS_P1;SDS_P2;PMS_P1;PMS_P2;Temp;Humidity;BMP_temperature;BMP_pressure;BME280_temperature;BME280_humidity;BME280_pressure;Samples;Min_cycle;Max_cycle;Signal;HPM_P1;HPM_P2
2023/09/04 00:00:19;;;;;;;;;4.50;4.25;;;;;26.42;43.29;101818.91;5080639;28;55185;-64
2023/09/04 00:02:46;;;;;;;;;4.75;4.75;;;;;26.40;43.37;101805.56;5080294;28;45501;-64
2023/09/04 00:05:11;;;;;;;;;5.00;4.75;;;;;26.37;43.02;101802.19;5080895;27;45397;-64
2023/09/04 00:07:37;;;;;;;;;5.00;5.00;;;;;26.32;43.17;101798.94;5080946;27;45239;-64
2023/09/04 00:10:03;;;;;;;;;6.50;4.75;;;;;26.32;43.33;101801.63;5113842;27;45364;-64
2023/09/04 00:12:29;;;;;;;;;4.00;4.00;;;;;26.29;43.39;101802.69;5081293;27;45258;-64
2023/09/04 00:14:54;;;;;;;;;4.75;4.00;;;;;26.27;43.28;101802.75;5080716;27;45476;-64
2023/09/04 00:17:20;;;;;;;;;7.00;5.00;;;;;26.24;43.28;101797.59;5080820;28;51261;-64
2023/09/04 00:19:46;;;;;;;;;6.25;6.25;;;;;26.22;43.47;101795.97;5113973;27;45851;-64
2023/09/04 00:22:12;;;;;;;;;4.25;4.00;;;;;26.18;44.07;101784.50;5081057;27;45480;-64
2023/09/04 00:24:37;;;;;;;;;4.00;4.00;;;;;26.16;43.48;101782.88;5080616;27;45453;-64
2023/09/04 00:27:03;;;;;;;;;4.00;4.00;;;;;26.13;43.46;101777.72;5080596;27;46222;-64
2023/09/04 00:29:28;;;;;;;;;7.00;5.50;;;;;26.11;44.02;101785.84;5080493;27;45353;-64
2023/09/04 00:31:53;;;;;;;;;4.25;4.25;;;;;26.09;43.54;101785.97;5080928;28;45339;-64
2023/09/04 00:34:19;;;;;;;;;5.50;5.25;;;;;26.08;44.32;101783.38;5080446;28;50877;-64
2023/09/04 00:36:44;;;;;;;;;5.75;5.75;;;;;26.04;43.90;101777.28;5080643;27;46034;-64
2023/09/04 00:39:09;;;;;;;;;5.00;5.00;;;;;26.03;44.08;101774.69;5079281;28;45312;-64
2023/09/04 00:41:35;;;;;;;;;3.75;3.75;;;;;25.96;44.41;101769.69;5080624;27;45472;-64
2023/09/04 00:44:00;;;;;;;;;4.50;4.50;;;;;26.00;44.35;101789.22;5080399;27;45315;-64
2023/09/04 00:46:25;;;;;;;;;6.00;5.00;;;;;25.98;43.94;101780.38;5080436;27;46475;-64
2023/09/04 00:48:52;;;;;;;;;5.00;5.00;;;;;25.97;43.73;101775.94;5080592;27;45252;-64
2023/09/04 00:51:18;;;;;;;;;4.25;4.00;;;;;25.96;43.85;101779.59;5113625;27;45180;-64
2023/09/04 00:53:43;;;;;;;;;4.25;4.25;;;;;25.91;44.14;101769.13;5080269;27;45239;-63
2023/09/04 00:56:12;;;;;;;;;5.75;5.00;;;;;25.91;44.32;101777.19;5080231;27;46313;-64
2023/09/04 00:58:37;;;;;;;;;7.00;6.50;;;;;25.90;44.00;101778.16;5080141;27;45380;-64
2023/09/04 01:01:03;;;;;;;;;4.25;4.25;;;;;25.87;43.96;101767.56;5079357;28;45784;-65
2023/09/04 01:03:30;;;;;;;;;6.00;5.50;;;;;25.85;44.43;101769.50;5080531;27;45301;-64
2023/09/04 01:05:56;;;;;;;;;5.00;5.00;;;;;25.84;44.52;101773.16;5080153;27;45424;-64
2023/09/04 01:08:21;;;;;;;;;3.50;3.50;;;;;25.83;44.26;101775.94;5113136;27;45173;-64
2023/09/04 01:11:17;;;;;;;;;4.75;4.75;;;;;25.79;44.80;101781.50;5080380;28;45232;-64
2023/09/04 01:13:51;;;;;;;;;6.00;6.00;;;;;25.77;44.62;101774.50;5079941;27;45214;-64
2023/09/04 01:16:18;;;;;;;;;6.00;4.75;;;;;25.73;44.16;101768.44;5080006;27;45241;-64
2023/09/04 01:18:44;;;;;;;;;5.00;5.00;;;;;25.72;44.71;101768.53;5080212;27;45227;-64
2023/09/04 01:21:10;;;;;;;;;5.25;3.75;;;;;25.70;44.51;101762.38;5113160;27;45274;-64
2023/09/04 01:23:36;;;;;;;;;5.75;5.25;;;;;25.67;44.85;101762.56;5079092;28;45741;-64
2023/09/04 01:26:23;;;;;;;;;5.50;4.50;;;;;25.64;45.10;101756.41;5078410;28;46160;-64
2023/09/04 01:28:54;;;;;;;;;5.25;5.25;;;;;25.62;44.91;101754.78;5095415;27;45331;-64
2023/09/04 01:31:28;;;;;;;;;5.25;5.25;;;;;25.61;44.55;101758.47;5079958;27;45428;-64
2023/09/04 01:34:07;;;;;;;;;3.75;3.75;;;;;25.58;44.67;101745.19;5079946;28;45232;-64
2023/09/04 01:36:34;;;;;;;;;4.75;4.75;;;;;25.53;45.03;101748.16;5078447;28;46419;-64
2023/09/04 01:39:00;;;;;;;;;6.00;6.00;;;;;25.52;45.18;101749.13;5078467;28;45255;-64
2023/09/04 01:41:25;;;;;;;;;5.75;3.00;;;;;25.50;44.71;101745.66;5112779;27;45292;-64
2023/09/04 01:43:51;;;;;;;;;6.50;5.50;;;;;25.46;44.72;101744.97;5079427;27;45508;-64
2023/09/04 01:46:16;;;;;;;;;5.00;5.00;;;;;25.39;44.75;101732.00;5078523;28;47448;-64
2023/09/04 01:48:41;;;;;;;;;6.00;6.00;;;;;25.41;44.67;101739.03;5078358;28;45259;-64
2023/09/04 01:51:07;;;;;;;;;5.75;5.25;;;;;25.38;45.04;101736.50;5080557;27;45790;-64
2023/09/04 01:53:32;;;;;;;;;4.00;4.00;;;;;25.36;44.75;101729.44;5081845;28;45508;-64
2023/09/04 01:55:58;;;;;;;;;5.50;5.25;;;;;25.32;44.79;101731.50;5082962;27;46209;-64
2023/09/04 01:58:24;;;;;;;;;6.75;6.75;;;;;25.30;45.24;101736.94;5083223;27;45313;-64
2023/09/04 02:00:49;;;;;;;;;7.00;7.00;;;;;25.28;45.00;101728.13;5083249;27;45278;-64
2023/09/04 02:03:15;;;;;;;;;6.00;6.00;;;;;25.24;45.12;101729.25;5082904;28;49125;-64
2023/09/04 02:05:40;;;;;;;;;8.25;8.00;;;;;25.20;45.57;101716.94;5083095;27;45222;-64
2023/09/04 02:08:07;;;;;;;;;6.00;5.25;;;;;25.22;45.42;101716.84;5083021;27;45250;-64
2023/09/04 02:10:36;;;;;;;;;6.00;6.00;;;;;25.17;45.69;101703.72;5083140;27;45307;-64
2023/09/04 02:13:02;;;;;;;;;4.00;4.00;;;;;25.14;45.31;101709.25;5081581;28;45495;-64
2023/09/04 02:15:29;;;;;;;;;5.50;5.50;;;;;25.14;45.50;101711.94;5082537;27;45215;-64
2023/09/04 02:17:54;;;;;;;;;5.75;5.00;;;;;25.09;45.38;101700.59;5082805;28;45230;-64
2023/09/04 02:20:20;;;;;;;;;6.50;6.25;;;;;25.09;45.62;101704.19;5083015;27;45513;-64
2023/09/04 02:22:45;;;;;;;;;9.00;6.00;;;;;25.07;45.90;101706.09;5083287;27;45456;-64
2023/09/04 02:25:10;;;;;;;;;4.75;4.75;;;;;25.04;45.27;101700.03;5082338;27;45548;-64
2023/09/04 02:27:36;;;;;;;;;6.00;5.75;;;;;24.99;45.81;101689.53;5082915;27;45457;-64
2023/09/04 02:30:03;;;;;;;;;6.00;5.00;;;;;24.99;45.75;101686.84;5115463;27;45499;-64
2023/09/04 02:32:29;;;;;;;;;7.00;7.00;;;;;24.97;45.96;101688.78;5082591;27;45469;-64
2023/09/04 02:34:54;;;;;;;;;6.25;4.00;;;;;24.92;45.96;101685.50;5082459;27;46454;-64
2023/09/04 02:37:19;;;;;;;;;6.50;6.50;;;;;24.91;46.20;101692.69;5082524;27;45476;-64
2023/09/04 02:39:45;;;;;;;;;5.75;5.75;;;;;24.90;45.62;101687.41;5082964;27;45492;-64
2023/09/04 02:42:10;;;;;;;;;6.00;5.75;;;;;24.86;45.68;101688.56;5080967;28;45496;-64
2023/09/04 02:44:36;;;;;;;;;4.25;3.00;;;;;24.84;46.03;101694.00;5082292;28;46365;-64
2023/09/04 02:47:01;;;;;;;;;4.00;3.75;;;;;24.82;46.00;101682.50;5082166;28;47026;-64
2023/09/04 02:49:26;;;;;;;;;7.75;7.50;;;;;24.78;45.68;101680.94;5081378;27;45419;-64
2023/09/04 02:51:51;;;;;;;;;5.75;5.25;;;;;24.77;45.90;101679.22;5082157;28;51232;-64
2023/09/04 02:54:17;;;;;;;;;8.00;7.00;;;;;24.76;46.01;101681.03;5085645;27;46926;-65
2023/09/04 02:56:42;;;;;;;;;6.50;6.50;;;;;24.71;45.73;101667.00;5115197;27;45176;-64
2023/09/04 02:59:08;;;;;;;;;7.00;6.50;;;;;24.72;46.06;101667.88;5082455;27;45228;-64
2023/09/04 03:01:34;;;;;;;;;5.00;5.00;;;;;24.70;46.17;101667.09;5082226;27;45207;-64
2023/09/04 03:03:59;;;;;;;;;6.25;4.75;;;;;24.66;45.91;101674.47;5080860;27;46279;-64
2023/09/04 03:06:25;;;;;;;;;6.00;6.00;;;;;24.64;46.43;101674.56;5081926;27;45346;-65
2023/09/04 03:08:50;;;;;;;;;6.00;6.00;;;;;24.62;46.05;101672.91;5082422;27;45199;-64
2023/09/04 03:11:16;;;;;;;;;7.00;6.75;;;;;24.57;46.26;101672.31;5081930;27;45323;-64
2023/09/04 03:13:41;;;;;;;;;8.25;7.50;;;;;24.54;46.32;101676.03;5081411;27;57353;-64
2023/09/04 03:16:07;;;;;;;;;6.50;4.50;;;;;24.49;46.37;101680.81;5082057;27;45519;-64
2023/09/04 03:18:34;;;;;;;;;6.25;6.25;;;;;24.46;46.62;101680.97;5082119;27;45418;-64
2023/09/04 03:21:04;;;;;;;;;8.25;6.00;;;;;24.43;46.50;101681.19;5080603;28;46028;-64
2023/09/04 03:23:30;;;;;;;;;7.50;6.25;;;;;24.38;46.26;101672.50;5081820;28;46438;-64
2023/09/04 03:25:56;;;;;;;;;7.00;6.00;;;;;24.36;46.59;101671.75;5081289;27;45259;-64
2023/09/04 03:28:22;;;;;;;;;9.25;9.25;;;;;24.31;46.34;101669.31;5080669;28;45437;-64
2023/09/04 03:30:47;;;;;;;;;11.00;10.75;;;;;24.30;46.43;101673.81;5081344;27;45392;-64
2023/09/04 03:33:13;;;;;;;;;13.00;8.50;;;;;24.27;46.60;101671.28;5081578;28;46109;-65
2023/09/04 03:35:38;;;;;;;;;12.00;10.50;;;;;24.27;46.68;101665.94;5081348;27;47122;-64
2023/09/04 03:38:04;;;;;;;;;13.00;10.75;;;;;24.24;46.42;101665.22;5081909;27;45409;-64
2023/09/04 03:40:30;;;;;;;;;13.50;11.25;;;;;24.21;46.32;101663.59;5081382;27;45389;-64
2023/09/04 03:42:56;;;;;;;;;12.50;12.25;;;;;24.22;46.33;101661.78;5081378;27;46233;-64
2023/09/04 03:45:22;;;;;;;;;11.50;11.00;;;;;24.18;46.67;101653.91;5080990;27;45294;-64
2023/09/04 03:47:48;;;;;;;;;13.25;11.00;;;;;24.19;46.84;101654.78;5081565;27;45308;-65
2023/09/04 03:50:14;;;;;;;;;9.50;7.75;;;;;24.16;47.02;101649.56;5081400;27;45412;-64
2023/09/04 03:52:41;;;;;;;;;12.75;12.25;;;;;24.16;46.98;101657.63;5081278;27;45257;-64
2023/09/04 03:55:08;;;;;;;;;14.00;11.00;;;;;24.13;46.66;101650.63;5080818;27;45354;-64
2023/09/04 03:57:36;;;;;;;;;19.50;17.75;;;;;24.07;46.49;101645.59;5081433;27;45442;-64
2023/09/04 04:00:03;;;;;;;;;20.00;17.00;;;;;24.11;46.96;101663.28;5080802;27;45255;-64
2023/09/04 04:02:28;;;;;;;;;12.25;12.25;;;;;24.07;46.64;101667.06;5081083;27;46169;-64
2023/09/04 04:04:53;;;;;;;;;11.00;11.00;;;;;24.04;46.81;101661.00;5080985;27;45231;-64
2023/09/04 04:07:19;;;;;;;;;8.50;8.50;;;;;24.01;47.12;101668.28;5079994;28;47743;-64
2023/09/04 04:09:47;;;;;;;;;10.25;9.25;;;;;24.02;47.09;101661.97;5113915;27;45177;-64
2023/09/04 04:12:13;;;;;;;;;8.25;8.25;;;;;24.01;46.78;101662.03;5080985;27;45298;-65
2023/09/04 04:14:39;;;;;;;;;8.00;7.00;;;;;24.00;46.68;101658.50;5080220;27;45454;-64
2023/09/04 04:17:04;;;;;;;;;9.25;8.25;;;;;23.98;46.84;101662.22;5081222;27;45649;-64
2023/09/04 04:19:30;;;;;;;;;7.50;7.00;;;;;23.97;47.02;101661.34;5080790;27;45377;-64
2023/09/04 04:21:55;;;;;;;;;7.75;6.75;;;;;23.96;47.08;101661.44;5081032;27;46160;-65
2023/09/04 04:24:20;;;;;;;;;7.25;7.25;;;;;23.93;47.02;101659.81;5080726;27;45317;-64
2023/09/04 04:26:46;;;;;;;;;9.00;7.50;;;;;23.91;46.98;101659.03;5080962;27;45291;-64
2023/09/04 04:29:11;;;;;;;;;9.75;7.25;;;;;23.89;47.59;101660.91;5080629;27;45243;-64
2023/09/04 04:31:37;;;;;;;;;8.75;6.50;;;;;23.88;47.19;101661.00;5080884;27;45255;-64
2023/09/04 04:34:03;;;;;;;;;9.00;9.00;;;;;23.84;47.42;101652.25;5080555;28;45292;-64
2023/09/04 04:36:28;;;;;;;;;7.50;7.50;;;;;23.83;47.38;101650.50;5079605;28;45270;-64
2023/09/04 04:38:54;;;;;;;;;13.00;11.25;;;;;23.82;47.11;101656.81;5080628;27;45307;-64
2023/09/04 04:41:19;;;;;;;;;17.50;16.50;;;;;23.75;47.18;101642.88;5080541;27;46274;-64
2023/09/04 04:43:44;;;;;;;;;7.50;7.50;;;;;23.79;47.44;101663.22;5080377;27;45212;-65
2023/09/04 04:46:12;;;;;;;;;9.00;9.00;;;;;23.76;47.27;101667.88;5080815;27;45410;-64
2023/09/04 04:48:38;;;;;;;;;8.75;8.50;;;;;23.70;47.53;101656.56;5096199;27;45543;-64
2023/09/04 04:51:03;;;;;;;;;10.00;9.00;;;;;23.69;47.41;101662.84;5080447;28;45414;-64
2023/09/04 04:53:29;;;;;;;;;7.25;6.00;;;;;23.66;47.29;101652.31;5080296;27;45255;-64
2023/09/04 04:55:55;;;;;;;;;7.75;7.50;;;;;23.64;47.61;101654.19;5080430;27;45430;-65
2023/09/04 04:58:21;;;;;;;;;11.00;10.00;;;;;23.56;47.41;101640.38;5080354;27;45534;-64
2023/09/04 05:00:46;;;;;;;;;11.00;9.00;;;;;23.55;47.49;101649.34;5095938;27;45344;-64
2023/09/04 05:03:12;;;;;;;;;8.50;8.25;;;;;23.58;47.52;101659.91;5080391;27;45315;-64
2023/09/04 05:05:42;;;;;;;;;10.75;9.50;;;;;23.54;47.65;101658.34;5080536;27;45217;-64
2023/09/04 05:08:08;;;;;;;;;8.25;7.50;;;;;23.48;47.88;101656.00;5113183;27;45480;-64
2023/09/04 05:10:33;;;;;;;;;8.25;7.75;;;;;23.46;47.78;101657.88;5079778;28;56191;-64
2023/09/04 05:12:58;;;;;;;;;8.50;8.00;;;;;23.49;47.73;101668.47;5080090;27;46360;-64
2023/09/04 05:15:23;;;;;;;;;10.00;8.75;;;;;23.45;47.45;101665.06;5079905;28;45310;-64
2023/09/04 05:17:49;;;;;;;;;10.00;8.00;;;;;23.46;47.74;101660.56;5080145;27;45323;-64
2023/09/04 05:20:14;;;;;;;;;8.00;8.00;;;;;23.42;47.69;101659.88;5080193;27;46350;-64
2023/09/04 05:22:39;;;;;;;;;8.00;7.25;;;;;23.42;47.87;101657.22;5080443;27;45395;-64
2023/09/04 05:25:05;;;;;;;;;6.75;6.75;;;;;23.41;47.76;101659.94;5079864;27;45350;-65
2023/09/04 05:27:30;;;;;;;;;10.25;9.50;;;;;23.36;47.61;101655.72;5082464;27;45373;-64
2023/09/04 05:29:56;;;;;;;;;9.25;7.75;;;;;23.39;47.75;101669.91;5083253;27;45394;-64
2023/09/04 05:32:21;;;;;;;;;11.50;10.00;;;;;23.36;47.85;101669.13;5081704;28;45205;-64
2023/09/04 05:34:51;;;;;;;;;51.00;40.25;;;;;23.34;47.60;101676.38;5083716;27;45416;-64
2023/09/04 05:37:17;;;;;;;;;14.00;12.25;;;;;23.32;47.46;101672.03;5099194;27;45575;-65
2023/09/04 05:39:42;;;;;;;;;8.00;8.00;;;;;23.31;47.82;101678.38;5083586;27;46211;-64
2023/09/04 05:42:07;;;;;;;;;7.25;7.25;;;;;23.28;47.45;101673.16;5083210;27;45343;-64
2023/09/04 05:44:32;;;;;;;;;7.75;7.75;;;;;23.19;47.79;101658.44;5083656;28;45217;-64
2023/09/04 05:46:58;;;;;;;;;8.50;8.00;;;;;23.21;47.89;101669.94;5083206;27;45565;-64
2023/09/04 05:49:23;;;;;;;;;11.00;10.00;;;;;23.23;47.80;101676.06;5083201;27;46173;-64
2023/09/04 05:51:48;;;;;;;;;9.50;9.50;;;;;23.24;48.07;101680.50;5083267;27;45306;-64
2023/09/04 05:54:14;;;;;;;;;8.00;8.00;;;;;23.21;47.77;101672.63;5099091;27;45389;-64
2023/09/04 05:56:39;;;;;;;;;8.50;5.00;;;;;23.20;47.92;101673.56;5082958;27;45636;-64
2023/09/04 05:59:05;;;;;;;;;10.25;9.25;;;;;23.17;47.91;101665.69;5082846;27;46377;-64
2023/09/04 06:01:30;;;;;;;;;9.50;8.75;;;;;23.17;47.74;101665.69;5082970;27;45321;-64
2023/09/04 06:03:56;;;;;;;;;9.50;9.50;;;;;23.16;47.99;101675.53;5083420;27;45734;-64
2023/09/04 06:06:21;;;;;;;;;7.75;7.25;;;;;23.15;48.10;101679.16;5082937;27;50804;-64
2023/09/04 06:08:46;;;;;;;;;9.00;7.00;;;;;23.12;48.02;101667.69;5115894;27;47012;-64
2023/09/04 06:11:12;;;;;;;;;11.00;9.50;;;;;23.12;48.20;101676.63;5115635;27;51249;-64
2023/09/04 06:13:37;;;;;;;;;7.25;7.25;;;;;23.11;47.66;101671.34;5082814;27;45236;-64
2023/09/04 06:16:03;;;;;;;;;9.25;9.25;;;;;23.09;48.08;101674.09;5082367;28;54836;-64
2023/09/04 06:18:29;;;;;;;;;9.50;9.50;;;;;23.08;48.07;101671.50;5082728;27;45207;-64
2023/09/04 06:20:55;;;;;;;;;12.25;9.00;;;;;23.08;47.74;101674.19;5115133;27;45547;-64
2023/09/04 06:23:20;;;;;;;;;11.25;9.75;;;;;23.05;48.01;101678.75;5082558;27;45284;-64
2023/09/04 06:25:46;;;;;;;;;8.00;6.50;;;;;23.06;48.14;101682.31;5082608;28;45231;-64
2023/09/04 06:28:12;;;;;;;;;9.00;8.00;;;;;23.04;48.09;101684.19;5082821;27;45609;-64
2023/09/04 06:30:38;;;;;;;;;11.00;10.00;;;;;23.05;48.29;101688.59;5082498;28;45471;-64
2023/09/04 06:33:03;;;;;;;;;8.50;8.50;;;;;23.03;48.18;101688.69;5081362;28;45287;-64
2023/09/04 06:35:29;;;;;;;;;8.75;8.00;;;;;23.02;48.12;101678.91;5082596;27;45348;-64
2023/09/04 06:37:55;;;;;;;;;10.00;10.00;;;;;23.02;48.40;101684.28;5081011;28;48390;-64
2023/09/04 06:40:21;;;;;;;;;8.25;8.25;;;;;23.02;48.05;101686.94;5082546;28;45381;-64
2023/09/04 06:42:47;;;;;;;;;11.50;9.50;;;;;23.00;48.15;101679.94;5082510;27;45294;-64
2023/09/04 06:45:13;;;;;;;;;9.00;9.00;;;;;23.01;48.09;101681.69;5082222;27;45381;-64
2023/09/04 06:47:38;;;;;;;;;9.50;9.50;;;;;23.02;48.17;101678.91;5082247;27;46247;-64
2023/09/04 06:50:06;;;;;;;;;8.75;7.50;;;;;23.01;47.98;101679.00;5082509;27;45323;-64
2023/09/04 06:52:31;;;;;;;;;9.75;8.75;;;;;23.02;48.06;101686.09;5082535;27;45541;-64
2023/09/04 06:54:56;;;;;;;;;8.75;8.00;;;;;23.00;48.11;101688.84;5081909;27;45404;-64
2023/09/04 06:57:22;;;;;;;;;11.50;9.25;;;;;23.03;48.27;101691.38;5082268;27;46196;-64
2023/09/04 06:59:47;;;;;;;;;10.50;10.00;;;;;23.01;48.39;101681.69;5082049;27;45308;-64
2023/09/04 07:02:12;;;;;;;;;10.25;9.00;;;;;23.03;48.54;101691.38;5082135;27;45242;-64
2023/09/04 07:04:38;;;;;;;;;9.25;9.25;;;;;23.04;48.47;101687.75;5082279;27;45301;-64
2023/09/04 07:07:03;;;;;;;;;7.00;7.00;;;;;23.05;47.76;101684.09;5081858;27;45303;-64
2023/09/04 07:09:29;;;;;;;;;9.25;9.25;;;;;23.08;48.23;101682.22;5082012;28;49328;-64
2023/09/04 07:11:54;;;;;;;;;8.50;8.50;;;;;23.09;48.05;101681.28;5114954;27;45520;-64
2023/09/04 07:14:20;;;;;;;;;10.50;10.00;;;;;23.08;48.35;101677.75;5081557;27;45378;-64
2023/09/04 07:16:45;;;;;;;;;9.50;8.50;;;;;23.12;48.17;101679.31;5081797;27;48068;-64
2023/09/04 07:19:10;;;;;;;;;5.25;5.25;;;;;23.11;48.18;101666.84;5081493;28;55830;-64
2023/09/04 07:21:36;;;;;;;;;8.25;8.25;;;;;23.16;47.98;101675.53;5081904;27;45359;-64
2023/09/04 07:24:03;;;;;;;;;9.00;9.00;;;;;23.19;48.60;101674.50;5081802;27;45443;-64
2023/09/04 07:26:29;;;;;;;;;11.50;11.50;;;;;23.20;48.91;101676.25;5081371;28;45228;-64
2023/09/04 07:28:55;;;;;;;;;7.25;6.25;;;;;23.22;48.18;101682.41;5081548;27;45352;-64
2023/09/04 07:31:20;;;;;;;;;8.50;8.50;;;;;23.23;48.43;101672.53;5081701;27;45247;-64
2023/09/04 07:33:47;;;;;;;;;10.00;10.00;;;;;23.27;48.40;101669.63;5081615;28;45165;-64
2023/09/04 07:36:12;;;;;;;;;10.25;8.50;;;;;23.30;48.61;101668.59;5081256;28;46193;-64
2023/09/04 07:38:38;;;;;;;;;9.00;8.25;;;;;23.33;48.10;101663.94;5081616;27;45333;-64
2023/09/04 07:41:04;;;;;;;;;10.50;8.00;;;;;23.36;48.21;101669.13;5081507;27;45431;-64
2023/09/04 07:43:32;;;;;;;;;8.00;8.00;;;;;23.39;48.42;101661.88;5081326;28;45350;-64
2023/09/04 07:45:58;;;;;;;;;9.75;9.75;;;;;23.42;48.17;101669.72;5081185;28;46293;-64
2023/09/04 07:48:24;;;;;;;;;8.25;8.25;;;;;23.42;48.18;101665.25;5081255;27;45247;-64
2023/09/04 07:50:50;;;;;;;;;9.00;8.00;;;;;23.45;48.13;101662.38;5080475;27;49444;-64
2023/09/04 07:53:15;;;;;;;;;8.00;8.00;;;;;23.49;48.39;101660.41;5080516;27;45255;-64
2023/09/04 07:55:43;;;;;;;;;7.00;7.00;;;;;23.53;48.29;101664.66;5079555;28;45992;-64
2023/09/04 07:58:10;;;;;;;;;6.25;5.50;;;;;23.56;48.40;101661.81;5081472;27;45268;-64
2023/09/04 08:00:36;;;;;;;;;8.25;7.25;;;;;23.60;48.80;101665.22;5081043;28;45322;-64
2023/09/04 08:03:02;;;;;;;;;10.00;8.00;;;;;23.59;48.11;101661.63;5081180;27;45271;-64
2023/09/04 08:05:27;;;;;;;;;9.00;8.00;;;;;23.65;48.21;101657.78;5113744;27;47137;-64
2023/09/04 08:07:53;;;;;;;;;8.25;7.25;;;;;23.68;48.26;101655.78;5081005;27;47156;-64
2023/09/04 08:10:19;;;;;;;;;8.25;8.00;;;;;23.76;48.29;101659.84;5080732;28;47308;-64
2023/09/04 08:12:44;;;;;;;;;6.25;6.25;;;;;23.77;48.18;101657.09;5079793;28;45338;-64
2023/09/04 08:15:10;;;;;;;;;9.00;9.00;;;;;23.84;48.36;101658.47;5080357;27;45230;-64
2023/09/04 08:17:36;;;;;;;;;6.25;6.25;;;;;23.87;48.49;101657.41;5081152;28;45178;-64
2023/09/04 08:20:01;;;;;;;;;7.75;7.75;;;;;23.90;48.42;101651.91;5081156;28;45239;-64
2023/09/04 08:22:26;;;;;;;;;7.50;7.50;;;;;23.96;48.29;101658.75;5080961;27;45405;-64
2023/09/04 08:24:54;;;;;;;;;10.25;7.00;;;;;24.01;48.10;101648.63;5078869;28;46929;-64
2023/09/04 08:27:19;;;;;;;;;8.00;7.50;;;;;24.07;48.38;101655.47;5080885;27;45330;-64
2023/09/04 08:29:45;;;;;;;;;8.75;8.75;;;;;24.13;48.18;101647.06;5080584;27;45653;-64
2023/09/04 08:32:10;;;;;;;;;7.25;7.25;;;;;24.19;48.27;101654.78;5080819;28;45341;-64
2023/09/04 08:34:35;;;;;;;;;6.25;5.00;;;;;24.23;47.89;101656.31;5080580;28;45419;-64
2023/09/04 08:37:01;;;;;;;;;9.25;8.00;;;;;24.25;48.08;101649.06;5080703;27;45291;-64
2023/09/04 08:39:26;;;;;;;;;10.25;7.25;;;;;24.33;48.13;101646.78;5080775;27;45298;-64
2023/09/04 08:41:52;;;;;;;;;8.50;6.50;;;;;24.34;48.37;101634.22;5080338;27;48598;-64
2023/09/04 08:44:19;;;;;;;;;6.00;6.00;;;;;24.43;48.49;101640.88;5079011;28;47788;-64
2023/09/04 08:46:47;;;;;;;;;9.00;7.50;;;;;24.50;48.52;101639.53;5079125;27;45370;-64
2023/09/04 08:49:14;;;;;;;;;10.00;6.50;;;;;24.59;48.38;101630.97;5080507;27;45350;-64
2023/09/04 08:51:40;;;;;;;;;10.25;8.75;;;;;24.65;48.21;101633.31;5080617;27;45466;-64
2023/09/04 08:54:05;;;;;;;;;8.25;8.25;;;;;24.73;48.59;101621.22;5080152;27;45831;-64
2023/09/04 08:56:31;;;;;;;;;8.00;7.25;;;;;24.79;47.94;101620.84;5080234;27;45406;-64
2023/09/04 08:58:57;;;;;;;;;8.00;7.50;;;;;24.85;48.53;101625.84;5080206;28;45260;-64
2023/09/04 09:01:26;;;;;;;;;7.75;7.50;;;;;24.93;48.01;101618.22;5096123;27;45258;-64
2023/09/04 09:03:52;;;;;;;;;8.25;7.50;;;;;25.00;48.08;101613.31;5080350;27;46474;-64
2023/09/04 09:06:17;;;;;;;;;5.75;5.25;;;;;25.08;48.27;101608.34;5080353;27;46187;-64
2023/09/04 09:08:44;;;;;;;;;8.00;6.75;;;;;25.17;48.56;101616.78;5080495;27;45362;-63
2023/09/04 09:11:13;;;;;;;;;9.75;8.00;;;;;25.25;48.21;101609.09;5080119;27;45476;-64
2023/09/04 09:13:39;;;;;;;;;9.00;8.00;;;;;25.33;47.87;101622.06;5079882;27;46109;-64
2023/09/04 09:16:04;;;;;;;;;7.25;6.50;;;;;25.36;48.19;101613.78;5079935;27;45325;-64
2023/09/04 09:18:42;;;;;;;;;6.25;6.25;;;;;25.47;47.79;101612.19;5080507;27;45287;-63
2023/09/04 09:21:33;;;;;;;;;9.00;8.25;;;;;25.60;48.20;101616.78;5112972;27;45296;-63
2023/09/04 09:24:25;;;;;;;;;7.00;7.00;;;;;25.72;47.62;101607.06;5095544;27;45274;-64
2023/09/04 09:26:50;;;;;;;;;5.50;5.50;;;;;25.81;48.05;101598.41;5078656;27;45315;-64
2023/09/04 09:29:18;;;;;;;;;8.50;8.50;;;;;25.92;47.52;101601.25;5079770;27;45307;-64
2023/09/04 09:31:45;;;;;;;;;6.50;6.50;;;;;26.02;47.81;101595.25;5069153;28;45576;-64
2023/09/04 09:34:11;;;;;;;;;7.25;7.25;;;;;26.16;48.25;101602.44;5079591;28;45331;-64
2023/09/04 09:36:36;;;;;;;;;8.75;8.50;;;;;26.30;48.17;101599.66;5079896;27;45397;-64
2023/09/04 09:39:03;;;;;;;;;4.50;3.50;;;;;26.47;47.59;101595.00;5080039;27;45353;-64
2023/09/04 09:41:29;;;;;;;;;8.00;7.00;;;;;26.64;47.66;101594.69;5079991;27;45381;-64
2023/09/04 09:43:55;;;;;;;;;8.25;6.50;;;;;26.84;48.44;101595.16;5079194;28;45311;-64
2023/09/04 09:46:20;;;;;;;;;8.50;8.50;;;;;27.01;48.14;101580.50;5079740;27;45318;-64
2023/09/04 09:48:46;;;;;;;;;9.00;7.75;;;;;27.28;47.93;101584.88;5079913;27;45233;-64
2023/09/04 09:51:13;;;;;;;;;7.00;7.00;;;;;27.55;47.72;101577.50;5080024;27;45209;-64
2023/09/04 09:53:57;;;;;;;;;6.75;4.25;;;;;27.88;47.98;101577.84;5079384;28;45267;-64
2023/09/04 09:56:23;;;;;;;;;7.00;7.00;;;;;28.16;47.97;101567.69;5079343;27;45244;-64
2023/09/04 09:58:49;;;;;;;;;9.00;7.00;;;;;28.46;47.73;101569.00;5079399;27;45265;-64
2023/09/04 10:01:18;;;;;;;;;7.75;7.75;;;;;28.75;47.22;101571.31;5079712;27;45248;-64
2023/09/04 10:03:45;;;;;;;;;5.75;5.75;;;;;29.03;47.23;101572.69;5079267;27;46291;-64
2023/09/04 10:06:15;;;;;;;;;7.75;7.75;;;;;29.27;46.96;101561.75;5095267;27;45302;-64
2023/09/04 10:08:43;;;;;;;;;8.50;8.50;;;;;29.51;46.62;101558.91;5079478;27;45307;-64
2023/09/04 10:11:16;;;;;;;;;5.25;5.25;;;;;29.73;46.48;101556.28;5079565;27;45269;-64
2023/09/04 10:14:02;;;;;;;;;8.25;7.00;;;;;29.94;46.35;101548.25;5081703;27;45181;-64
2023/09/04 10:16:33;;;;;;;;;8.00;7.00;;;;;30.15;46.00;101551.84;5081429;28;45515;-64
2023/09/04 10:19:01;;;;;;;;;8.00;7.75;;;;;30.34;45.54;101538.53;5083047;28;45342;-64
2023/09/04 10:21:33;;;;;;;;;6.75;6.75;;;;;30.54;45.43;101535.03;5082793;27;45478;-63
2023/09/04 10:24:02;;;;;;;;;5.25;5.00;;;;;30.75;45.49;101536.84;5082750;27;46122;-64
2023/09/04 10:27:04;;;;;;;;;6.25;6.00;;;;;31.01;45.00;101534.53;5082431;27;45351;-64
2023/09/04 10:29:32;;;;;;;;;10.00;6.25;;;;;31.24;45.26;101534.34;5070687;27;45280;-63
2023/09/04 10:32:00;;;;;;;;;5.00;5.00;;;;;31.45;44.65;101524.25;5082590;28;45382;-63
2023/09/04 10:34:26;;;;;;;;;8.50;5.75;;;;;31.71;44.89;101522.88;5082427;28;46518;-63
2023/09/04 10:36:53;;;;;;;;;6.25;5.50;;;;;31.93;44.22;101521.75;5082451;27;45262;-63
2023/09/04 10:39:19;;;;;;;;;7.75;6.25;;;;;32.17;43.80;101506.84;5082670;27;45231;-63
2023/09/04 10:41:45;;;;;;;;;6.25;4.50;;;;;32.45;44.53;101521.41;5082338;27;45536;-62
2023/09/04 10:44:12;;;;;;;;;7.00;7.00;;;;;32.70;43.97;101516.34;5081498;27;45424;-64
2023/09/04 10:46:54;;;;;;;;;6.50;5.25;;;;;32.98;43.72;101517.28;5082590;27;45264;-64
2023/09/04 10:49:31;;;;;;;;;6.50;6.50;;;;;33.25;43.16;101517.41;5082732;28;45215;-63
2023/09/04 10:51:56;;;;;;;;;5.75;5.75;;;;;33.46;43.12;101503.53;5082181;28;45547;-63
2023/09/04 10:54:25;;;;;;;;;6.75;5.50;;;;;33.70;42.91;101498.34;5080719;28;46557;-63
2023/09/04 10:56:58;;;;;;;;;6.00;5.00;;;;;33.95;42.81;101500.44;5080715;28;45252;-64
2023/09/04 10:59:24;;;;;;;;;5.00;5.00;;;;;34.18;42.39;101489.91;5080915;28;45356;-64
2023/09/04 11:01:49;;;;;;;;;6.00;6.00;;;;;34.42;41.94;101493.84;5082064;28;45368;-63
2023/09/04 11:04:45;;;;;;;;;7.00;6.50;;;;;34.72;41.90;101483.41;5080920;28;47954;-63
2023/09/04 11:07:19;;;;;;;;;5.50;4.00;;;;;34.99;41.76;101487.84;5082174;27;45333;-64
2023/09/04 11:09:45;;;;;;;;;3.25;3.25;;;;;35.24;41.29;101483.28;5082027;28;45362;-63
2023/09/04 11:12:11;;;;;;;;;5.25;4.25;;;;;35.50;41.11;101470.56;5082046;28;45457;-64
2023/09/04 11:14:47;;;;;;;;;3.50;3.25;;;;;35.81;41.19;101478.94;5081606;28;46394;-64
2023/09/04 11:17:15;;;;;;;;;3.00;3.00;;;;;36.11;40.37;101477.44;5081882;27;45256;-64
2023/09/04 11:19:41;;;;;;;;;3.50;3.50;;;;;36.38;40.55;101472.63;5082020;28;45405;-63
2023/09/04 11:22:15;;;;;;;;;4.50;3.50;;;;;36.68;40.22;101477.50;5081760;27;45170;-64